sensor_id;sensor_type;location;lat;lon;timestamp;pressure;altitude;pressure_sealevel;temperature;humidity
69909;BME280;57190;47.918;8.112;2023-02-18T00:00:07;91869.06;;;7.35;83.53
69909;BME280;57190;47.918;8.112;2023-02-18T00:02:33;91878.66;;;7.36;83.34
69909;BME280;57190;47.918;8.112;2023-02-18T00:04:59;91879.44;;;7.37;82.99
69909;BME280;57190;47.918;8.112;2023-02-18T00:07:24;91883.38;;;7.34;82.94
69909;BME280;57190;47.918;8.112;2023-02-18T00:09:50;91878.28;;;7.33;82.97
69909;BME280;57190;47.918;8.112;2023-02-18T00:12:16;91876.78;;;7.37;82.85
69909;BME280;57190;47.918;8.112;2023-02-18T00:14:41;91880.47;;;7.36;82.99
69909;BME280;57190;47.918;8.112;2023-02-18T00:17:07;91881.44;;;7.42;82.44
69909;BME280;57190;47.918;8.112;2023-02-18T00:19:32;91868.84;;;7.37;82.76
69909;BME280;57190;47.918;8.112;2023-02-18T00:21:58;91866.63;;;7.34;82.51
69909;BME280;57190;47.918;8.112;2023-02-18T00:24:24;91867.44;;;7.34;82.69
69909;BME280;57190;47.918;8.112;2023-02-18T00:26:51;91861.69;;;7.37;82.19
69909;BME280;57190;47.918;8.112;2023-02-18T00:29:18;91855.34;;;7.38;82.39
69909;BME280;57190;47.918;8.112;2023-02-18T00:31:44;91858.69;;;7.34;82.50
69909;BME280;57190;47.918;8.112;2023-02-18T00:34:11;91857.06;;;7.33;82.77
69909;BME280;57190;47.918;8.112;2023-02-18T00:36:37;91849.88;;;7.33;83.01
69909;BME280;57190;47.918;8.112;2023-02-18T00:39:05;91850.25;;;7.37;83.14
69909;BME280;57190;47.918;8.112;2023-02-18T00:41:31;91846.81;;;7.36;83.26
69909;BME280;57190;47.918;8.112;2023-02-18T00:43:58;91844.94;;;7.37;83.03
69909;BME280;57190;47.918;8.112;2023-02-18T00:46:24;91836.19;;;7.36;83.10
69909;BME280;57190;47.918;8.112;2023-02-18T00:48:51;91826.97;;;7.39;82.52
69909;BME280;57190;47.918;8.112;2023-02-18T00:51:16;91824.75;;;7.36;83.07
69909;BME280;57190;47.918;8.112;2023-02-18T00:53:42;91829.84;;;7.37;82.77
69909;BME280;57190;47.918;8.112;2023-02-18T00:56:08;91822.91;;;7.36;83.16
69909;BME280;57190;47.918;8.112;2023-02-18T00:58:35;91825.34;;;7.38;82.88
69909;BME280;57190;47.918;8.112;2023-02-18T01:01:01;91827.84;;;7.33;82.91
69909;BME280;57190;47.918;8.112;2023-02-18T01:03:27;91820.84;;;7.38;82.69
69909;BME280;57190;47.918;8.112;2023-02-18T01:05:52;91823.50;;;7.38;82.99
69909;BME280;57190;47.918;8.112;2023-02-18T01:08:19;91829.25;;;7.35;83.38
69909;BME280;57190;47.918;8.112;2023-02-18T01:10:47;91815.91;;;7.42;82.69
69909;BME280;57190;47.918;8.112;2023-02-18T01:13:14;91807.72;;;7.44;82.65
69909;BME280;57190;47.918;8.112;2023-02-18T01:15:40;91804.47;;;7.42;82.71
69909;BME280;57190;47.918;8.112;2023-02-18T01:18:07;91801.22;;;7.39;82.72
69909;BME280;57190;47.918;8.112;2023-02-18T01:20:36;91801.13;;;7.46;82.44
69909;BME280;57190;47.918;8.112;2023-02-18T01:23:03;91795.47;;;7.43;82.29
69909;BME280;57190;47.918;8.112;2023-02-18T01:25:29;91799.66;;;7.50;81.87
69909;BME280;57190;47.918;8.112;2023-02-18T01:27:54;91794.00;;;7.47;81.66
69909;BME280;57190;47.918;8.112;2023-02-18T01:30:21;91787.84;;;7.46;81.52
69909;BME280;57190;47.918;8.112;2023-02-18T01:32:47;91789.16;;;7.55;81.44
69909;BME280;57190;47.918;8.112;2023-02-18T01:35:14;91799.44;;;7.52;80.87
69909;BME280;57190;47.918;8.112;2023-02-18T01:37:40;91789.16;;;7.55;81.02
69909;BME280;57190;47.918;8.112;2023-02-18T01:40:07;91790.06;;;7.49;81.19
69909;BME280;57190;47.918;8.112;2023-02-18T01:42:33;91795.50;;;7.54;81.15
69909;BME280;57190;47.918;8.112;2023-02-18T01:48:05;91799.88;;;7.49;81.58
69909;BME280;57190;47.918;8.112;2023-02-18T01:50:36;91804.63;;;7.47;81.88
69909;BME280;57190;47.918;8.112;2023-02-18T01:53:03;91803.13;;;7.51;81.52
69909;BME280;57190;47.918;8.112;2023-02-18T01:55:28;91800.09;;;7.47;81.41
69909;BME280;57190;47.918;8.112;2023-02-18T01:57:54;91781.06;;;7.50;81.42
69909;BME280;57190;47.918;8.112;2023-02-18T02:00:20;91788.09;;;7.45;81.69
69909;BME280;57190;47.918;8.112;2023-02-18T02:02:47;91786.69;;;7.42;81.76
69909;BME280;57190;47.918;8.112;2023-02-18T02:05:15;91782.19;;;7.43;82.19
69909;BME280;57190;47.918;8.112;2023-02-18T02:07:41;91782.44;;;7.41;82.07
69909;BME280;57190;47.918;8.112;2023-02-18T02:10:08;91780.56;;;7.42;82.12
69909;BME280;57190;47.918;8.112;2023-02-18T02:26:49;91774.09;;;7.37;81.46
69909;BME280;57190;47.918;8.112;2023-02-18T02:38:00;91770.63;;;7.37;81.52
69909;BME280;57190;47.918;8.112;2023-02-18T02:51:10;91773.75;;;7.34;81.65
69909;BME280;57190;47.918;8.112;2023-02-18T02:53:39;91761.63;;;7.38;81.70
69909;BME280;57190;47.918;8.112;2023-02-18T02:56:08;91760.38;;;7.40;81.11
69909;BME280;57190;47.918;8.112;2023-02-18T02:58:34;91765.00;;;7.45;80.87
69909;BME280;57190;47.918;8.112;2023-02-18T03:04:50;91769.91;;;7.30;81.87
69909;BME280;57190;47.918;8.112;2023-02-18T03:10:29;91765.78;;;7.34;81.77
69909;BME280;57190;47.918;8.112;2023-02-18T03:19:01;91757.59;;;7.35;82.08
69909;BME280;57190;47.918;8.112;2023-02-18T03:21:32;91750.88;;;7.33;82.40
69909;BME280;57190;47.918;8.112;2023-02-18T03:24:26;91752.94;;;7.31;82.19
69909;BME280;57190;47.918;8.112;2023-02-18T03:26:58;91754.09;;;7.35;82.41
69909;BME280;57190;47.918;8.112;2023-02-18T03:29:26;91753.91;;;7.36;82.27
69909;BME280;57190;47.918;8.112;2023-02-18T03:32:00;91750.06;;;7.32;82.25
69909;BME280;57190;47.918;8.112;2023-02-18T03:34:37;91744.75;;;7.32;82.34
69909;BME280;57190;47.918;8.112;2023-02-18T03:37:05;91746.38;;;7.33;82.33
69909;BME280;57190;47.918;8.112;2023-02-18T03:39:34;91742.56;;;7.29;82.14
69909;BME280;57190;47.918;8.112;2023-02-18T03:42:03;91746.25;;;7.28;81.95
69909;BME280;57190;47.918;8.112;2023-02-18T03:44:29;91736.00;;;7.32;82.36
69909;BME280;57190;47.918;8.112;2023-02-18T03:46:55;91738.06;;;7.30;82.20
69909;BME280;57190;47.918;8.112;2023-02-18T03:49:21;91727.56;;;7.35;82.05
69909;BME280;57190;47.918;8.112;2023-02-18T03:51:47;91732.16;;;7.28;82.24
69909;BME280;57190;47.918;8.112;2023-02-18T03:54:12;91722.38;;;7.28;82.69
69909;BME280;57190;47.918;8.112;2023-02-18T03:56:39;91740.34;;;7.26;82.26
69909;BME280;57190;47.918;8.112;2023-02-18T03:59:04;91734.00;;;7.27;82.55
69909;BME280;57190;47.918;8.112;2023-02-18T04:01:30;91736.34;;;7.35;82.50
69909;BME280;57190;47.918;8.112;2023-02-18T04:03:55;91730.94;;;7.30;82.13
69909;BME280;57190;47.918;8.112;2023-02-18T04:06:21;91738.50;;;7.27;82.31
69909;BME280;57190;47.918;8.112;2023-02-18T04:08:47;91734.00;;;7.27;82.32
69909;BME280;57190;47.918;8.112;2023-02-18T04:11:13;91731.59;;;7.26;82.02
69909;BME280;57190;47.918;8.112;2023-02-18T04:13:38;91736.31;;;7.23;82.48
69909;BME280;57190;47.918;8.112;2023-02-18T04:16:04;91743.44;;;7.23;81.98
69909;BME280;57190;47.918;8.112;2023-02-18T04:18:30;91740.44;;;7.19;82.04
69909;BME280;57190;47.918;8.112;2023-02-18T04:20:56;91737.94;;;7.24;82.14
69909;BME280;57190;47.918;8.112;2023-02-18T04:23:21;91732.03;;;7.22;82.03
69909;BME280;57190;47.918;8.112;2023-02-18T04:25:47;91733.19;;;7.27;81.57
69909;BME280;57190;47.918;8.112;2023-02-18T04:28:14;91733.50;;;7.18;81.92
69909;BME280;57190;47.918;8.112;2023-02-18T04:30:42;91719.56;;;7.23;81.50
69909;BME280;57190;47.918;8.112;2023-02-18T04:33:07;91725.69;;;7.23;81.29
69909;BME280;57190;47.918;8.112;2023-02-18T04:35:33;91726.28;;;7.26;81.24
69909;BME280;57190;47.918;8.112;2023-02-18T04:37:59;91725.22;;;7.27;81.08
69909;BME280;57190;47.918;8.112;2023-02-18T04:40:24;91723.94;;;7.17;81.10
69909;BME280;57190;47.918;8.112;2023-02-18T04:42:50;91731.81;;;7.24;80.74
69909;BME280;57190;47.918;8.112;2023-02-18T04:45:16;91744.03;;;7.25;80.39
69909;BME280;57190;47.918;8.112;2023-02-18T04:47:41;91733.31;;;7.20;80.13
69909;BME280;57190;47.918;8.112;2023-02-18T04:50:07;91735.59;;;7.16;80.61
69909;BME280;57190;47.918;8.112;2023-02-18T04:52:33;91743.56;;;7.16;80.46
69909;BME280;57190;47.918;8.112;2023-02-18T04:54:58;91740.00;;;7.22;80.09
69909;BME280;57190;47.918;8.112;2023-02-18T04:57:24;91747.59;;;7.19;79.79
69909;BME280;57190;47.918;8.112;2023-02-18T04:59:49;91737.88;;;7.13;80.21
69909;BME280;57190;47.918;8.112;2023-02-18T05:02:15;91752.75;;;7.14;80.44
69909;BME280;57190;47.918;8.112;2023-02-18T05:04:40;91743.75;;;7.15;80.24
69909;BME280;57190;47.918;8.112;2023-02-18T05:07:06;91732.13;;;7.16;79.79
69909;BME280;57190;47.918;8.112;2023-02-18T05:09:31;91735.81;;;7.15;79.71
69909;BME280;57190;47.918;8.112;2023-02-18T05:11:57;91730.28;;;7.16;79.98
69909;BME280;57190;47.918;8.112;2023-02-18T05:14:23;91735.25;;;7.13;80.43
69909;BME280;57190;47.918;8.112;2023-02-18T05:16:48;91723.56;;;7.14;80.35
69909;BME280;57190;47.918;8.112;2023-02-18T05:19:14;91716.44;;;7.14;79.92
69909;BME280;57190;47.918;8.112;2023-02-18T05:24:07;91723.31;;;7.03;79.63
69909;BME280;57190;47.918;8.112;2023-02-18T05:26:33;91708.28;;;6.97;79.78
69909;BME280;57190;47.918;8.112;2023-02-18T05:28:59;91719.13;;;6.96;79.61
69909;BME280;57190;47.918;8.112;2023-02-18T05:31:24;91729.97;;;6.94;79.79
69909;BME280;57190;47.918;8.112;2023-02-18T05:33:50;91721.78;;;6.96;79.27
69909;BME280;57190;47.918;8.112;2023-02-18T05:36:15;91720.75;;;6.97;79.84
69909;BME280;57190;47.918;8.112;2023-02-18T05:38:41;91730.56;;;6.96;79.94
69909;BME280;57190;47.918;8.112;2023-02-18T05:41:06;91727.31;;;6.94;80.30
69909;BME280;57190;47.918;8.112;2023-02-18T05:43:32;91715.44;;;6.97;80.06
69909;BME280;57190;47.918;8.112;2023-02-18T05:46:17;91723.25;;;6.91;80.35
69909;BME280;57190;47.918;8.112;2023-02-18T05:48:43;91716.22;;;6.97;80.34
69909;BME280;57190;47.918;8.112;2023-02-18T05:51:08;91706.28;;;6.92;80.28
69909;BME280;57190;47.918;8.112;2023-02-18T05:53:34;91700.97;;;6.92;80.28
69909;BME280;57190;47.918;8.112;2023-02-18T05:55:59;91703.94;;;6.84;81.46
69909;BME280;57190;47.918;8.112;2023-02-18T05:58:25;91705.13;;;6.88;80.37
69909;BME280;57190;47.918;8.112;2023-02-18T06:00:50;91706.03;;;6.82;80.61
69909;BME280;57190;47.918;8.112;2023-02-18T06:03:16;91712.06;;;6.89;80.16
69909;BME280;57190;47.918;8.112;2023-02-18T06:05:41;91695.25;;;6.96;80.43
69909;BME280;57190;47.918;8.112;2023-02-18T06:08:07;91707.91;;;6.93;79.69
69909;BME280;57190;47.918;8.112;2023-02-18T06:10:32;91704.47;;;6.93;80.47
69909;BME280;57190;47.918;8.112;2023-02-18T06:12:57;91700.53;;;6.96;80.46
69909;BME280;57190;47.918;8.112;2023-02-18T06:15:24;91711.06;;;7.02;80.29
69909;BME280;57190;47.918;8.112;2023-02-18T06:17:49;91713.81;;;6.96;80.56
69909;BME280;57190;47.918;8.112;2023-02-18T06:20:15;91705.41;;;6.99;80.88
69909;BME280;57190;47.918;8.112;2023-02-18T06:22:40;91712.19;;;6.95;80.89
69909;BME280;57190;47.918;8.112;2023-02-18T06:25:06;91703.56;;;6.99;80.97
69909;BME280;57190;47.918;8.112;2023-02-18T06:27:31;91704.38;;;7.00;81.49
69909;BME280;57190;47.918;8.112;2023-02-18T06:29:57;91697.47;;;6.99;81.25
69909;BME280;57190;47.918;8.112;2023-02-18T06:32:22;91695.84;;;6.98;81.01
69909;BME280;57190;47.918;8.112;2023-02-18T06:34:48;91706.69;;;6.96;81.47
69909;BME280;57190;47.918;8.112;2023-02-18T06:37:13;91708.28;;;6.97;81.16
69909;BME280;57190;47.918;8.112;2023-02-18T06:39:39;91699.22;;;7.05;80.59
69909;BME280;57190;47.918;8.112;2023-02-18T06:42:04;91707.97;;;7.05;80.12
69909;BME280;57190;47.918;8.112;2023-02-18T06:44:30;91705.91;;;7.07;80.65
69909;BME280;57190;47.918;8.112;2023-02-18T06:46:55;91711.19;;;7.07;80.46
69909;BME280;57190;47.918;8.112;2023-02-18T06:49:21;91708.91;;;7.11;80.59
69909;BME280;57190;47.918;8.112;2023-02-18T06:51:46;91707.88;;;7.12;80.31
69909;BME280;57190;47.918;8.112;2023-02-18T06:54:12;91700.06;;;7.17;80.19
69909;BME280;57190;47.918;8.112;2023-02-18T06:56:37;91708.03;;;7.17;80.59
69909;BME280;57190;47.918;8.112;2023-02-18T06:59:03;91705.38;;;7.17;80.52
69909;BME280;57190;47.918;8.112;2023-02-18T07:01:28;91697.41;;;7.17;80.23
69909;BME280;57190;47.918;8.112;2023-02-18T07:03:54;91694.19;;;7.15;79.98
69909;BME280;57190;47.918;8.112;2023-02-18T07:06:19;91700.88;;;7.18;80.46
69909;BME280;57190;47.918;8.112;2023-02-18T07:08:45;91701.47;;;7.20;79.96
69909;BME280;57190;47.918;8.112;2023-02-18T07:11:10;91697.31;;;7.24;79.93
69909;BME280;57190;47.918;8.112;2023-02-18T07:13:36;91700.78;;;7.24;79.69
69909;BME280;57190;47.918;8.112;2023-02-18T07:16:01;91700.47;;;7.33;79.45
69909;BME280;57190;47.918;8.112;2023-02-18T07:18:27;91710.72;;;7.29;79.41
69909;BME280;57190;47.918;8.112;2023-02-18T07:20:52;91708.63;;;7.31;79.35
69909;BME280;57190;47.918;8.112;2023-02-18T07:23:18;91711.75;;;7.28;79.80
69909;BME280;57190;47.918;8.112;2023-02-18T07:25:43;91710.03;;;7.34;79.64
69909;BME280;57190;47.918;8.112;2023-02-18T07:28:09;91718.22;;;7.32;79.61
69909;BME280;57190;47.918;8.112;2023-02-18T07:30:35;91718.00;;;7.34;80.27
69909;BME280;57190;47.918;8.112;2023-02-18T07:33:00;91715.03;;;7.42;79.85
69909;BME280;57190;47.918;8.112;2023-02-18T07:35:26;91715.59;;;7.44;79.34
69909;BME280;57190;47.918;8.112;2023-02-18T07:37:51;91717.22;;;7.45;79.50
69909;BME280;57190;47.918;8.112;2023-02-18T07:40:19;91717.81;;;7.47;79.47
69909;BME280;57190;47.918;8.112;2023-02-18T07:42:47;91712.72;;;7.46;79.32
69909;BME280;57190;47.918;8.112;2023-02-18T07:45:12;91721.06;;;7.49;79.00
69909;BME280;57190;47.918;8.112;2023-02-18T07:47:38;91704.88;;;7.51;78.91
69909;BME280;57190;47.918;8.112;2023-02-18T07:50:05;91717.38;;;7.50;78.79
69909;BME280;57190;47.918;8.112;2023-02-18T07:52:31;91716.09;;;7.53;78.82
69909;BME280;57190;47.918;8.112;2023-02-18T07:54:56;91719.91;;;7.57;78.57
69909;BME280;57190;47.918;8.112;2023-02-18T07:57:22;91721.75;;;7.57;78.70
69909;BME280;57190;47.918;8.112;2023-02-18T07:59:47;91719.53;;;7.53;78.88
69909;BME280;57190;47.918;8.112;2023-02-18T08:02:21;91730.50;;;7.57;78.33
69909;BME280;57190;47.918;8.112;2023-02-18T08:04:47;91731.91;;;7.60;78.17
69909;BME280;57190;47.918;8.112;2023-02-18T08:07:14;91726.59;;;7.60;78.10
69909;BME280;57190;47.918;8.112;2023-02-18T08:09:40;91721.44;;;7.65;78.04
69909;BME280;57190;47.918;8.112;2023-02-18T08:12:06;91718.78;;;7.65;78.05
69909;BME280;57190;47.918;8.112;2023-02-18T08:14:31;91724.09;;;7.65;78.44
69909;BME280;57190;47.918;8.112;2023-02-18T08:16:57;91724.34;;;7.75;77.65
69909;BME280;57190;47.918;8.112;2023-02-18T08:19:23;91718.78;;;7.65;77.81
69909;BME280;57190;47.918;8.112;2023-02-18T08:21:48;91719.56;;;7.65;78.09
69909;BME280;57190;47.918;8.112;2023-02-18T08:24:15;91729.41;;;7.65;77.77
69909;BME280;57190;47.918;8.112;2023-02-18T08:26:41;91723.63;;;7.68;77.62
69909;BME280;57190;47.918;8.112;2023-02-18T08:29:06;91719.91;;;7.69;77.56
69909;BME280;57190;47.918;8.112;2023-02-18T08:31:33;91715.53;;;7.75;77.32
69909;BME280;57190;47.918;8.112;2023-02-18T08:33:59;91707.13;;;7.78;77.29
69909;BME280;57190;47.918;8.112;2023-02-18T08:36:27;91709.56;;;7.79;77.23
69909;BME280;57190;47.918;8.112;2023-02-18T08:38:56;91709.19;;;7.76;77.02
69909;BME280;57190;47.918;8.112;2023-02-18T08:41:25;91718.44;;;7.73;77.20
69909;BME280;57190;47.918;8.112;2023-02-18T08:43:54;91717.25;;;7.69;77.60
69909;BME280;57190;47.918;8.112;2023-02-18T08:46:22;91713.03;;;7.68;77.33
69909;BME280;57190;47.918;8.112;2023-02-18T08:48:50;91711.84;;;7.76;77.29
69909;BME280;57190;47.918;8.112;2023-02-18T08:51:20;91709.78;;;7.78;77.14
69909;BME280;57190;47.918;8.112;2023-02-18T08:53:49;91706.66;;;7.81;76.90
69909;BME280;57190;47.918;8.112;2023-02-18T08:56:17;91706.22;;;7.84;76.80
69909;BME280;57190;47.918;8.112;2023-02-18T08:58:43;91714.63;;;7.81;76.62
69909;BME280;57190;47.918;8.112;2023-02-18T09:01:11;91709.22;;;7.87;76.41
69909;BME280;57190;47.918;8.112;2023-02-18T09:03:38;91710.75;;;7.95;76.50
69909;BME280;57190;47.918;8.112;2023-02-18T09:06:04;91714.66;;;7.93;76.50
69909;BME280;57190;47.918;8.112;2023-02-18T09:08:29;91708.53;;;7.92;76.39
69909;BME280;57190;47.918;8.112;2023-02-18T09:10:57;91714.78;;;7.98;76.70
69909;BME280;57190;47.918;8.112;2023-02-18T09:13:24;91705.63;;;7.94;76.33
69909;BME280;57190;47.918;8.112;2023-02-18T09:18:22;91711.19;;;7.92;76.49
69909;BME280;57190;47.918;8.112;2023-02-18T09:20:48;91713.03;;;7.92;76.11
69909;BME280;57190;47.918;8.112;2023-02-18T09:23:13;91712.56;;;7.95;76.19
69909;BME280;57190;47.918;8.112;2023-02-18T09:25:39;91713.25;;;7.90;76.37
69909;BME280;57190;47.918;8.112;2023-02-18T09:28:05;91720.53;;;7.95;76.70
69909;BME280;57190;47.918;8.112;2023-02-18T09:30:30;91709.47;;;7.98;76.13
69909;BME280;57190;47.918;8.112;2023-02-18T09:32:56;91712.13;;;7.98;76.17
69909;BME280;57190;47.918;8.112;2023-02-18T09:35:21;91715.00;;;7.96;76.13
69909;BME280;57190;47.918;8.112;2023-02-18T09:37:47;91711.19;;;8.04;75.79
69909;BME280;57190;47.918;8.112;2023-02-18T09:40:28;91708.09;;;8.07;75.55
69909;BME280;57190;47.918;8.112;2023-02-18T09:42:55;91713.84;;;8.04;75.84
69909;BME280;57190;47.918;8.112;2023-02-18T09:45:22;91720.78;;;8.05;75.74
69909;BME280;57190;47.918;8.112;2023-02-18T09:47:49;91719.28;;;8.09;75.60
69909;BME280;57190;47.918;8.112;2023-02-18T09:50:21;91728.66;;;8.12;75.48
69909;BME280;57190;47.918;8.112;2023-02-18T09:52:48;91724.63;;;8.09;75.59
69909;BME280;57190;47.918;8.112;2023-02-18T09:57:52;91719.66;;;8.13;75.22
69909;BME280;57190;47.918;8.112;2023-02-18T10:00:24;91725.06;;;8.06;75.44
69909;BME280;57190;47.918;8.112;2023-02-18T10:02:58;91732.00;;;8.07;75.34
69909;BME280;57190;47.918;8.112;2023-02-18T10:05:28;91727.03;;;8.11;75.32
69909;BME280;57190;47.918;8.112;2023-02-18T10:08:11;91719.66;;;8.13;74.96
69909;BME280;57190;47.918;8.112;2023-02-18T10:10:42;91725.41;;;8.10;74.89
69909;BME280;57190;47.918;8.112;2023-02-18T10:13:16;91720.53;;;8.18;74.62
69909;BME280;57190;47.918;8.112;2023-02-18T10:15:43;91725.84;;;7.95;75.35
69909;BME280;57190;47.918;8.112;2023-02-18T10:18:41;91726.88;;;7.94;75.47
69909;BME280;57190;47.918;8.112;2023-02-18T10:21:11;91724.94;;;8.01;75.15
69909;BME280;57190;47.918;8.112;2023-02-18T10:23:41;91720.69;;;8.00;75.12
69909;BME280;57190;47.918;8.112;2023-02-18T10:26:15;91722.06;;;8.02;74.96
69909;BME280;57190;47.918;8.112;2023-02-18T10:28:42;91720.44;;;8.01;75.00
69909;BME280;57190;47.918;8.112;2023-02-18T10:31:12;91719.75;;;8.06;74.70
69909;BME280;57190;47.918;8.112;2023-02-18T10:33:51;91717.53;;;8.15;75.26
69909;BME280;57190;47.918;8.112;2023-02-18T10:36:26;91717.44;;;8.22;73.77
69909;BME280;57190;47.918;8.112;2023-02-18T10:47:33;91708.41;;;8.58;71.95
69909;BME280;57190;47.918;8.112;2023-02-18T10:52:45;91698.69;;;8.64;72.01
69909;BME280;57190;47.918;8.112;2023-02-18T10:55:14;91701.59;;;8.62;71.94
69909;BME280;57190;47.918;8.112;2023-02-18T10:57:51;91692.09;;;8.67;71.79
69909;BME280;57190;47.918;8.112;2023-02-18T11:00:22;91677.97;;;8.78;71.16
69909;BME280;57190;47.918;8.112;2023-02-18T11:03:14;91677.34;;;8.88;70.51
69909;BME280;57190;47.918;8.112;2023-02-18T11:05:41;91674.09;;;8.98;70.67
69909;BME280;57190;47.918;8.112;2023-02-18T11:08:10;91694.91;;;9.01;70.40
69909;BME280;57190;47.918;8.112;2023-02-18T11:10:41;91683.22;;;9.02;70.26
69909;BME280;57190;47.918;8.112;2023-02-18T11:13:09;91673.56;;;9.12;70.33
69909;BME280;57190;47.918;8.112;2023-02-18T11:15:37;91676.66;;;9.21;70.28
69909;BME280;57190;47.918;8.112;2023-02-18T11:18:28;91655.84;;;9.18;69.49
69909;BME280;57190;47.918;8.112;2023-02-18T11:20:57;91668.50;;;9.28;69.34
69909;BME280;57190;47.918;8.112;2023-02-18T11:23:24;91669.00;;;9.25;69.14
69909;BME280;57190;47.918;8.112;2023-02-18T11:26:00;91668.28;;;9.30;68.96
69909;BME280;57190;47.918;8.112;2023-02-18T11:28:41;91667.78;;;9.33;69.11
69909;BME280;57190;47.918;8.112;2023-02-18T11:31:11;91666.81;;;9.22;68.91
69909;BME280;57190;47.918;8.112;2023-02-18T11:33:43;91670.03;;;9.24;68.66
69909;BME280;57190;47.918;8.112;2023-02-18T11:38:53;91660.88;;;9.49;67.98
69909;BME280;57190;47.918;8.112;2023-02-18T11:41:28;91679.06;;;9.52;67.95
69909;BME280;57190;47.918;8.112;2023-02-18T11:43:55;91661.59;;;9.44;67.14
69909;BME280;57190;47.918;8.112;2023-02-18T11:46:24;91664.78;;;9.58;67.85
69909;BME280;57190;47.918;8.112;2023-02-18T11:48:51;91663.66;;;9.71;67.14
69909;BME280;57190;47.918;8.112;2023-02-18T11:51:32;91663.81;;;9.64;67.02
69909;BME280;57190;47.918;8.112;2023-02-18T11:56:59;91656.25;;;9.73;66.92
69909;BME280;57190;47.918;8.112;2023-02-18T11:59:26;91647.34;;;9.67;67.21
69909;BME280;57190;47.918;8.112;2023-02-18T12:02:05;91649.59;;;9.58;67.03
69909;BME280;57190;47.918;8.112;2023-02-18T12:04:45;91650.34;;;9.71;66.89
69909;BME280;57190;47.918;8.112;2023-02-18T12:07:41;91639.44;;;9.72;66.28
69909;BME280;57190;47.918;8.112;2023-02-18T12:10:20;91639.91;;;9.86;65.51
69909;BME280;57190;47.918;8.112;2023-02-18T12:15:25;91631.66;;;9.88;65.93
69909;BME280;57190;47.918;8.112;2023-02-18T12:18:15;91636.59;;;9.96;65.55
69909;BME280;57190;47.918;8.112;2023-02-18T12:23:45;91622.53;;;10.01;65.51
69909;BME280;57190;47.918;8.112;2023-02-18T12:26:28;91622.78;;;9.99;65.06
69909;BME280;57190;47.918;8.112;2023-02-18T12:29:08;91623.66;;;10.05;64.73
69909;BME280;57190;47.918;8.112;2023-02-18T12:31:44;91615.16;;;10.08;65.05
69909;BME280;57190;47.918;8.112;2023-02-18T12:50:42;91612.06;;;10.33;64.15
69909;BME280;57190;47.918;8.112;2023-02-18T13:01:35;91594.53;;;10.37;63.36
69909;BME280;57190;47.918;8.112;2023-02-18T13:04:27;91605.66;;;10.34;63.00
69909;BME280;57190;47.918;8.112;2023-02-18T13:15:42;91585.84;;;10.47;63.34
69909;BME280;57190;47.918;8.112;2023-02-18T13:18:15;91577.84;;;10.47;63.17
69909;BME280;57190;47.918;8.112;2023-02-18T13:21:06;91582.06;;;10.65;63.03
69909;BME280;57190;47.918;8.112;2023-02-18T13:23:52;91576.69;;;10.60;63.38
69909;BME280;57190;47.918;8.112;2023-02-18T13:26:20;91574.81;;;10.38;63.16
69909;BME280;57190;47.918;8.112;2023-02-18T13:32:12;91580.41;;;10.20;63.08
69909;BME280;57190;47.918;8.112;2023-02-18T13:34:51;91574.44;;;10.13;62.21
69909;BME280;57190;47.918;8.112;2023-02-18T13:39:54;91559.41;;;10.46;63.01
69909;BME280;57190;47.918;8.112;2023-02-18T13:47:46;91557.72;;;10.84;61.42
69909;BME280;57190;47.918;8.112;2023-02-18T13:53:18;91549.88;;;11.05;59.62
69909;BME280;57190;47.918;8.112;2023-02-18T13:58:22;91543.56;;;11.11;60.08
69909;BME280;57190;47.918;8.112;2023-02-18T14:01:02;91536.34;;;11.11;60.77
69909;BME280;57190;47.918;8.112;2023-02-18T14:06:17;91537.59;;;10.76;60.91
69909;BME280;57190;47.918;8.112;2023-02-18T14:08:44;91540.22;;;10.71;60.85
69909;BME280;57190;47.918;8.112;2023-02-18T14:13:51;91546.06;;;10.68;61.64
69909;BME280;57190;47.918;8.112;2023-02-18T14:16:18;91536.66;;;10.88;61.29
69909;BME280;57190;47.918;8.112;2023-02-18T14:26:24;91547.94;;;10.45;62.33
69909;BME280;57190;47.918;8.112;2023-02-18T14:28:55;91535.09;;;10.42;62.58
69909;BME280;57190;47.918;8.112;2023-02-18T14:31:33;91531.00;;;10.34;61.63
69909;BME280;57190;47.918;8.112;2023-02-18T14:34:04;91521.88;;;10.30;61.82
69909;BME280;57190;47.918;8.112;2023-02-18T14:37:29;91541.09;;;10.32;61.61
69909;BME280;57190;47.918;8.112;2023-02-18T14:50:47;91530.50;;;10.15;62.46
69909;BME280;57190;47.918;8.112;2023-02-18T14:53:20;91534.03;;;10.21;62.24
69909;BME280;57190;47.918;8.112;2023-02-18T14:55:48;91533.53;;;10.24;62.34
69909;BME280;57190;47.918;8.112;2023-02-18T15:00:41;91525.28;;;10.03;62.72
69909;BME280;57190;47.918;8.112;2023-02-18T15:03:16;91535.94;;;10.03;62.93
69909;BME280;57190;47.918;8.112;2023-02-18T15:05:43;91533.22;;;9.98;62.35
69909;BME280;57190;47.918;8.112;2023-02-18T15:08:20;91528.06;;;9.91;62.39
69909;BME280;57190;47.918;8.112;2023-02-18T15:10:59;91539.22;;;9.88;62.80
69909;BME280;57190;47.918;8.112;2023-02-18T15:13:30;91539.53;;;9.92;63.53
69909;BME280;57190;47.918;8.112;2023-02-18T15:16:05;91539.69;;;9.85;63.45
69909;BME280;57190;47.918;8.112;2023-02-18T15:18:41;91538.03;;;9.79;63.32
69909;BME280;57190;47.918;8.112;2023-02-18T15:21:35;91529.41;;;9.72;63.06
69909;BME280;57190;47.918;8.112;2023-02-18T15:24:05;91539.50;;;9.70;62.90
69909;BME280;57190;47.918;8.112;2023-02-18T15:26:31;91543.47;;;9.67;63.24
69909;BME280;57190;47.918;8.112;2023-02-18T15:29:03;91533.69;;;9.73;63.44
69909;BME280;57190;47.918;8.112;2023-02-18T15:31:33;91539.66;;;9.63;63.44
69909;BME280;57190;47.918;8.112;2023-02-18T15:34:00;91540.91;;;9.55;63.15
69909;BME280;57190;47.918;8.112;2023-02-18T15:36:26;91535.16;;;9.47;63.75
69909;BME280;57190;47.918;8.112;2023-02-18T15:38:52;91535.66;;;9.43;63.92
69909;BME280;57190;47.918;8.112;2023-02-18T15:41:19;91526.59;;;9.44;64.38
69909;BME280;57190;47.918;8.112;2023-02-18T15:44:19;91525.00;;;9.26;64.71
69909;BME280;57190;47.918;8.112;2023-02-18T15:46:46;91523.22;;;9.15;64.79
69909;BME280;57190;47.918;8.112;2023-02-18T15:49:14;91524.69;;;9.06;65.37
69909;BME280;57190;47.918;8.112;2023-02-18T15:51:41;91527.81;;;9.03;65.46
69909;BME280;57190;47.918;8.112;2023-02-18T15:54:16;91524.38;;;9.02;64.89